Nathalie — OJLP — position and weather

sailwx.info

Track history (hours):
 
Tides and Currents Weather Stations Pressure Air Temp Water Temp Dewpoint Dewpoint Depression Visibility Wind Speed Wind Dir Waves Ship Positions

Nathalie

Last reported at 2014-Oct-20 17:33 UTC. Time now 2014-Oct-23 08:46 UTC.
Position N 55°60' E 016°15'.

Length 64 m; draft 2.2 m.

Type: Cargo ship. MMSI: 230987660.

Date/timePositionNaut miles runAvg speedWind from/ knotsBaromVisibWave heightAir tempDewpointWater temp
2014-Oct-20 17:33N 55°60' E 016°15'10 9.7
2014-Oct-20 16:29N 55°59' E 015°57'1010.2
2014-Oct-20 15:33N 55°59' E 015°39'11 9.8
2014-Oct-20 14:28N 55°59' E 015°20'9 0.3
2014-Oct-19 06:08N 55°58' E 015°03'4 6.3
2014-Oct-19 05:33N 55°59' E 015°10'6 6.1
2014-Oct-19 04:33N 55°59' E 015°21'6 6.0
2014-Oct-19 03:33N 55°59' E 015°31'6 5.9
2014-Oct-19 02:33N 55°59' E 015°42'6 5.8
2014-Oct-19 01:32N 55°60' E 015°53'6 5.8
2014-Oct-19 00:33N 56°01' E 016°02'6 6.2
2014-Oct-18 23:33N 56°03' E 016°13'8 6.7
2014-Oct-18 22:25N 56°05' E 016°26'322 6.7
2014-Oct-16 22:32N 59°42' E 023°53'10 9.3
2014-Oct-16 21:28N 59°50' E 024°06'14 0.6
2014-Oct-15 23:29N 59°39' E 024°20'8 8.5
2014-Oct-15 22:33N 59°32' E 024°28'8 7.9
2014-Oct-15 21:34N 59°27' E 024°40'0 0.1
2014-Oct-15 20:33N 59°27' E 024°40'0 0.0
2014-Oct-15 19:33N 59°27' E 024°40'0 0.0
2014-Oct-15 18:30N 59°27' E 024°40'0 0.0
2014-Oct-15 17:33N 59°27' E 024°40'0 0.0
2014-Oct-15 16:33N 59°27' E 024°40'0 0.0
2014-Oct-15 15:33N 59°27' E 024°40'0 0.0
2014-Oct-15 14:33N 59°27' E 024°40'0 0.0
2014-Oct-15 13:30N 59°27' E 024°40'0 0.0
2014-Oct-15 12:33N 59°27' E 024°40'0 0.0
2014-Oct-15 11:24N 59°27' E 024°40'0 0.0
2014-Oct-15 10:33N 59°27' E 024°40'0 0.0
2014-Oct-15 09:30N 59°27' E 024°40'4 4.7
2014-Oct-15 08:33N 59°31' E 024°39'4 4.0
2014-Oct-15 07:31N 59°28' E 024°42'0 0.0
2014-Oct-15 06:31N 59°28' E 024°42'0 0.0
2014-Oct-15 05:25N 59°28' E 024°42'0 0.0
2014-Oct-15 04:31N 59°28' E 024°42'0 0.0
2014-Oct-15 03:31N 59°28' E 024°42'0 0.0
2014-Oct-15 02:34N 59°28' E 024°42'0 0.0
2014-Oct-15 01:33N 59°28' E 024°42'0 0.0
2014-Oct-15 00:33N 59°28' E 024°42'0 0.0
2014-Oct-14 23:33N 59°28' E 024°42'0 0.0
2014-Oct-14 22:30N 59°28' E 024°42'0 0.0
2014-Oct-14 21:33N 59°28' E 024°42'0 0.0
2014-Oct-14 20:33N 59°28' E 024°42'0 0.0
2014-Oct-14 19:33N 59°28' E 024°42'0 0.0
2014-Oct-14 18:33N 59°28' E 024°42'0 0.0
2014-Oct-14 17:33N 59°28' E 024°42'0 0.0
2014-Oct-14 16:33N 59°28' E 024°42'0 0.0
2014-Oct-14 15:33N 59°28' E 024°42'0 0.0
2014-Oct-14 14:33N 59°28' E 024°42'0 0.0
2014-Oct-14 13:33N 59°28' E 024°42'0 0.0
2014-Oct-14 12:33N 59°28' E 024°42'0 0.0
2014-Oct-14 11:30N 59°28' E 024°42'0 0.0
2014-Oct-14 10:33N 59°28' E 024°42'0 0.0
2014-Oct-14 09:33N 59°28' E 024°42'0 0.0
2014-Oct-14 08:30N 59°28' E 024°42'0 0.0
2014-Oct-14 07:33N 59°28' E 024°42'0 0.0
2014-Oct-14 06:33N 59°28' E 024°42'0 0.0
2014-Oct-14 05:18N 59°28' E 024°42'0 0.0
2014-Oct-14 03:27N 59°28' E 024°42'0 0.0
2014-Oct-14 02:33N 59°28' E 024°42'0 0.0
2014-Oct-14 01:33N 59°28' E 024°42'0 0.0
2014-Oct-14 00:33N 59°28' E 024°42'0 0.0
2014-Oct-13 23:24N 59°28' E 024°42'0 0.0
2014-Oct-13 22:33N 59°28' E 024°42'0 0.0
2014-Oct-13 21:27N 59°28' E 024°42'0 0.0
2014-Oct-13 20:27N 59°28' E 024°42'0 0.0
2014-Oct-13 19:33N 59°28' E 024°42'0 0.0
2014-Oct-13 18:33N 59°28' E 024°42'0 0.0
2014-Oct-13 17:33N 59°28' E 024°42'0 0.0
2014-Oct-13 16:33N 59°28' E 024°42'0 0.0
2014-Oct-13 15:30N 59°28' E 024°42'0 0.0
2014-Oct-13 14:33N 59°28' E 024°42'0 0.0
2014-Oct-13 13:30N 59°28' E 024°42'0 0.0
2014-Oct-13 12:29N 59°28' E 024°42'0 0.0
2014-Oct-13 11:32N 59°28' E 024°42'0 0.0
2014-Oct-13 10:32N 59°28' E 024°42'0 0.0
2014-Oct-13 09:32N 59°28' E 024°42'0 0.0
2014-Oct-13 08:32N 59°28' E 024°42'0 0.0
2014-Oct-13 07:32N 59°28' E 024°42'0 0.0
2014-Oct-13 06:32N 59°28' E 024°42'0 0.0
2014-Oct-13 05:32N 59°28' E 024°42'0 0.0
2014-Oct-13 04:32N 59°28' E 024°42'0 0.0
2014-Oct-13 03:32N 59°28' E 024°42'0 0.0
2014-Oct-13 02:32N 59°28' E 024°42'0 0.0
2014-Oct-13 01:32N 59°28' E 024°42'0 0.0
2014-Oct-13 00:32N 59°28' E 024°42'0 0.0
2014-Oct-12 23:32N 59°28' E 024°42'0 0.0
2014-Oct-12 22:32N 59°28' E 024°42'0 0.0
2014-Oct-12 21:32N 59°28' E 024°42'0 0.0
2014-Oct-12 20:32N 59°28' E 024°42'0 0.0
2014-Oct-12 19:32N 59°28' E 024°42'0 0.0
2014-Oct-12 18:32N 59°28' E 024°42'0 0.0
2014-Oct-12 17:32N 59°28' E 024°42'0 0.0
2014-Oct-12 16:32N 59°28' E 024°42'0 0.0
2014-Oct-12 15:32N 59°28' E 024°42'0 0.0
2014-Oct-12 14:32N 59°28' E 024°42'0 0.0
2014-Oct-12 13:32N 59°28' E 024°42'0 0.0
2014-Oct-12 12:32N 59°28' E 024°42'0 0.0
2014-Oct-12 11:29N 59°28' E 024°42'0 0.0
2014-Oct-12 10:29N 59°28' E 024°42'0 0.0
2014-Oct-12 09:32N 59°28' E 024°42'0 0.0
2014-Oct-12 08:32N 59°28' E 024°42'0 0.0
2014-Oct-12 07:29N 59°28' E 024°42'0 0.0
2014-Oct-12 06:32N 59°28' E 024°42'0 0.0
2014-Oct-12 05:32N 59°28' E 024°42'0 0.0
2014-Oct-12 04:32N 59°28' E 024°42'0 0.0
2014-Oct-12 03:32N 59°28' E 024°42'0 0.0
2014-Oct-12 02:32N 59°28' E 024°42'0 0.0
2014-Oct-12 01:31N 59°28' E 024°42'0 0.0
2014-Oct-12 00:31N 59°28' E 024°42'0 0.0
2014-Oct-11 23:31N 59°28' E 024°42'0 0.0
2014-Oct-11 22:31N 59°28' E 024°42'0 0.0
2014-Oct-11 21:31N 59°28' E 024°42'0 0.0
2014-Oct-11 20:31N 59°28' E 024°42'0 0.0
2014-Oct-11 19:31N 59°28' E 024°42'0 0.0
2014-Oct-11 18:31N 59°28' E 024°42'0 0.0
2014-Oct-11 17:31N 59°28' E 024°42'0 0.0
2014-Oct-11 16:31N 59°28' E 024°42'0 0.0
2014-Oct-11 15:28N 59°28' E 024°42'0 0.0
2014-Oct-11 14:31N 59°28' E 024°42'0 0.0
2014-Oct-11 13:28N 59°28' E 024°42'0 0.0
2014-Oct-11 12:31N 59°28' E 024°42'0 0.0
2014-Oct-11 11:31N 59°28' E 024°42'0 0.0
2014-Oct-11 10:31N 59°28' E 024°42'0 0.0
2014-Oct-11 09:31N 59°28' E 024°42'0 0.0
2014-Oct-11 08:31N 59°28' E 024°42'0 0.0
2014-Oct-11 07:25N 59°28' E 024°42'0 0.0
2014-Oct-11 06:31N 59°28' E 024°42'0 0.0
2014-Oct-11 05:31N 59°28' E 024°42'0 0.0
2014-Oct-10 20:29N 59°28' E 024°42'0 0.0
2014-Oct-10 19:32N 59°28' E 024°42'0 0.0
2014-Oct-10 18:32N 59°28' E 024°42'  
Track history (hours):
 
Tides and Currents Weather Stations Pressure Air Temp Water Temp Dewpoint Dewpoint Depression Visibility Wind Speed Wind Dir Waves Ship Positions

Nathalie

Last reported at 2014-Oct-20 17:33 UTC. Time now 2014-Oct-23 08:46 UTC.
Position N 55°60' E 016°15'.

Length 64 m; draft 2.2 m.

Type: Cargo ship. MMSI: 230987660.

Date/timePositionNaut miles runAvg speedWind from/ knotsBaromVisibWave heightAir tempDewpointWater temp
2014-Oct-20 17:33N 55°60' E 016°15'10 9.7
2014-Oct-20 16:29N 55°59' E 015°57'1010.2
2014-Oct-20 15:33N 55°59' E 015°39'11 9.8
2014-Oct-20 14:28N 55°59' E 015°20'9 0.3
2014-Oct-19 06:08N 55°58' E 015°03'4 6.3
2014-Oct-19 05:33N 55°59' E 015°10'6 6.1
2014-Oct-19 04:33N 55°59' E 015°21'6 6.0
2014-Oct-19 03:33N 55°59' E 015°31'6 5.9
2014-Oct-19 02:33N 55°59' E 015°42'6 5.8
2014-Oct-19 01:32N 55°60' E 015°53'6 5.8
2014-Oct-19 00:33N 56°01' E 016°02'6 6.2
2014-Oct-18 23:33N 56°03' E 016°13'8 6.7
2014-Oct-18 22:25N 56°05' E 016°26'322 6.7
2014-Oct-16 22:32N 59°42' E 023°53'10 9.3
2014-Oct-16 21:28N 59°50' E 024°06'14 0.6
2014-Oct-15 23:29N 59°39' E 024°20'8 8.5
2014-Oct-15 22:33N 59°32' E 024°28'8 7.9
2014-Oct-15 21:34N 59°27' E 024°40'0 0.1
2014-Oct-15 20:33N 59°27' E 024°40'0 0.0
2014-Oct-15 19:33N 59°27' E 024°40'0 0.0
2014-Oct-15 18:30N 59°27' E 024°40'0 0.0
2014-Oct-15 17:33N 59°27' E 024°40'0 0.0
2014-Oct-15 16:33N 59°27' E 024°40'0 0.0
2014-Oct-15 15:33N 59°27' E 024°40'0 0.0
2014-Oct-15 14:33N 59°27' E 024°40'0 0.0
2014-Oct-15 13:30N 59°27' E 024°40'0 0.0
2014-Oct-15 12:33N 59°27' E 024°40'0 0.0
2014-Oct-15 11:24N 59°27' E 024°40'0 0.0
2014-Oct-15 10:33N 59°27' E 024°40'0 0.0
2014-Oct-15 09:30N 59°27' E 024°40'4 4.7
2014-Oct-15 08:33N 59°31' E 024°39'4 4.0
2014-Oct-15 07:31N 59°28' E 024°42'0 0.0
2014-Oct-15 06:31N 59°28' E 024°42'0 0.0
2014-Oct-15 05:25N 59°28' E 024°42'0 0.0
2014-Oct-15 04:31N 59°28' E 024°42'0 0.0
2014-Oct-15 03:31N 59°28' E 024°42'0 0.0
2014-Oct-15 02:34N 59°28' E 024°42'0 0.0
2014-Oct-15 01:33N 59°28' E 024°42'0 0.0
2014-Oct-15 00:33N 59°28' E 024°42'0 0.0
2014-Oct-14 23:33N 59°28' E 024°42'0 0.0
2014-Oct-14 22:30N 59°28' E 024°42'0 0.0
2014-Oct-14 21:33N 59°28' E 024°42'0 0.0
2014-Oct-14 20:33N 59°28' E 024°42'0 0.0
2014-Oct-14 19:33N 59°28' E 024°42'0 0.0
2014-Oct-14 18:33N 59°28' E 024°42'0 0.0
2014-Oct-14 17:33N 59°28' E 024°42'0 0.0
2014-Oct-14 16:33N 59°28' E 024°42'0 0.0
2014-Oct-14 15:33N 59°28' E 024°42'0 0.0
2014-Oct-14 14:33N 59°28' E 024°42'0 0.0
2014-Oct-14 13:33N 59°28' E 024°42'0 0.0
2014-Oct-14 12:33N 59°28' E 024°42'0 0.0
2014-Oct-14 11:30N 59°28' E 024°42'0 0.0
2014-Oct-14 10:33N 59°28' E 024°42'0 0.0
2014-Oct-14 09:33N 59°28' E 024°42'0 0.0
2014-Oct-14 08:30N 59°28' E 024°42'0 0.0
2014-Oct-14 07:33N 59°28' E 024°42'0 0.0
2014-Oct-14 06:33N 59°28' E 024°42'0 0.0
2014-Oct-14 05:18N 59°28' E 024°42'0 0.0
2014-Oct-14 03:27N 59°28' E 024°42'0 0.0
2014-Oct-14 02:33N 59°28' E 024°42'0 0.0
2014-Oct-14 01:33N 59°28' E 024°42'0 0.0
2014-Oct-14 00:33N 59°28' E 024°42'0 0.0
2014-Oct-13 23:24N 59°28' E 024°42'0 0.0
2014-Oct-13 22:33N 59°28' E 024°42'0 0.0
2014-Oct-13 21:27N 59°28' E 024°42'0 0.0
2014-Oct-13 20:27N 59°28' E 024°42'0 0.0
2014-Oct-13 19:33N 59°28' E 024°42'0 0.0
2014-Oct-13 18:33N 59°28' E 024°42'0 0.0
2014-Oct-13 17:33N 59°28' E 024°42'0 0.0
2014-Oct-13 16:33N 59°28' E 024°42'0 0.0
2014-Oct-13 15:30N 59°28' E 024°42'0 0.0
2014-Oct-13 14:33N 59°28' E 024°42'0 0.0
2014-Oct-13 13:30N 59°28' E 024°42'0 0.0
2014-Oct-13 12:29N 59°28' E 024°42'0 0.0
2014-Oct-13 11:32N 59°28' E 024°42'0 0.0
2014-Oct-13 10:32N 59°28' E 024°42'0 0.0
2014-Oct-13 09:32N 59°28' E 024°42'0 0.0
2014-Oct-13 08:32N 59°28' E 024°42'0 0.0
2014-Oct-13 07:32N 59°28' E 024°42'0 0.0
2014-Oct-13 06:32N 59°28' E 024°42'0 0.0
2014-Oct-13 05:32N 59°28' E 024°42'0 0.0
2014-Oct-13 04:32N 59°28' E 024°42'0 0.0
2014-Oct-13 03:32N 59°28' E 024°42'0 0.0
2014-Oct-13 02:32N 59°28' E 024°42'0 0.0
2014-Oct-13 01:32N 59°28' E 024°42'0 0.0
2014-Oct-13 00:32N 59°28' E 024°42'0 0.0
2014-Oct-12 23:32N 59°28' E 024°42'0 0.0
2014-Oct-12 22:32N 59°28' E 024°42'0 0.0
2014-Oct-12 21:32N 59°28' E 024°42'0 0.0
2014-Oct-12 20:32N 59°28' E 024°42'0 0.0
2014-Oct-12 19:32N 59°28' E 024°42'0 0.0
2014-Oct-12 18:32N 59°28' E 024°42'0 0.0
2014-Oct-12 17:32N 59°28' E 024°42'0 0.0
2014-Oct-12 16:32N 59°28' E 024°42'0 0.0
2014-Oct-12 15:32N 59°28' E 024°42'0 0.0
2014-Oct-12 14:32N 59°28' E 024°42'0 0.0
2014-Oct-12 13:32N 59°28' E 024°42'0 0.0
2014-Oct-12 12:32N 59°28' E 024°42'0 0.0
2014-Oct-12 11:29N 59°28' E 024°42'0 0.0
2014-Oct-12 10:29N 59°28' E 024°42'0 0.0
2014-Oct-12 09:32N 59°28' E 024°42'0 0.0
2014-Oct-12 08:32N 59°28' E 024°42'0 0.0
2014-Oct-12 07:29N 59°28' E 024°42'0 0.0
2014-Oct-12 06:32N 59°28' E 024°42'0 0.0
2014-Oct-12 05:32N 59°28' E 024°42'0 0.0
2014-Oct-12 04:32N 59°28' E 024°42'0 0.0
2014-Oct-12 03:32N 59°28' E 024°42'0 0.0
2014-Oct-12 02:32N 59°28' E 024°42'0 0.0
2014-Oct-12 01:31N 59°28' E 024°42'0 0.0
2014-Oct-12 00:31N 59°28' E 024°42'0 0.0
2014-Oct-11 23:31N 59°28' E 024°42'0 0.0
2014-Oct-11 22:31N 59°28' E 024°42'0 0.0
2014-Oct-11 21:31N 59°28' E 024°42'0 0.0
2014-Oct-11 20:31N 59°28' E 024°42'0 0.0
2014-Oct-11 19:31N 59°28' E 024°42'0 0.0
2014-Oct-11 18:31N 59°28' E 024°42'0 0.0
2014-Oct-11 17:31N 59°28' E 024°42'0 0.0
2014-Oct-11 16:31N 59°28' E 024°42'0 0.0
2014-Oct-11 15:28N 59°28' E 024°42'0 0.0
2014-Oct-11 14:31N 59°28' E 024°42'0 0.0
2014-Oct-11 13:28N 59°28' E 024°42'0 0.0
2014-Oct-11 12:31N 59°28' E 024°42'0 0.0
2014-Oct-11 11:31N 59°28' E 024°42'0 0.0
2014-Oct-11 10:31N 59°28' E 024°42'0 0.0
2014-Oct-11 09:31N 59°28' E 024°42'0 0.0
2014-Oct-11 08:31N 59°28' E 024°42'0 0.0
2014-Oct-11 07:25N 59°28' E 024°42'0 0.0
2014-Oct-11 06:31N 59°28' E 024°42'0 0.0
2014-Oct-11 05:31N 59°28' E 024°42'0 0.0
2014-Oct-10 20:29N 59°28' E 024°42'0 0.0
2014-Oct-10 19:32N 59°28' E 024°42'0 0.0
2014-Oct-10 18:32N 59°28' E 024°42'  

Dump ship's entire track history